West Palm Beach, FL

6:19 AM EST en Diciembre 22, 2014 (GMT -0500)
Palm Beach, FL | Change Station
CLOSE
Current Station
Estación meteorológica personal
Location: Palm Beach, FL
Altura: 8 ft
Estaciones meteorológicas cercanas

Alt 8 ft 26.71 °N, 80.04 °W | Updated 1 second ago

Mostly Cloudy
Muy nublado
68.4 ° F
Sensación térmica 68.4 ° F
N
0.0
Viento Variable Viento desde OSO
Gusts 0.0 mph

Hoy
Alta -- | Baja -- ° F
--% Posibilidad de precipitaciones
Ayer
Alta -- | Baja -- ° F
Precip. -- pul
7:05 AM 5:32 PM
Luna nueva, 0% visible
Presión 30.01 pul
Visibilidad 10.0 Millas
Nubes Baja 6000 ft
Muy nublado 25000 ft
Punto de rocío 65 ° F
Humedad 88%
Precipitaciones 0.00 pul
Espesor de la nieve No disponible.
UV 0 de una escala de 12
Polen 4.70 de una escala de 12
Calidad del aire No disponible.
Flu Activity No disponible.
METAR KPBI 221053Z 00000KT 10SM FEW060 BKN250 19/17 A3001 RMK AO2 SLP162 T01890172

More Conditions Fewer Conditions

Presión 30.01 pul
Visibilidad 10.0 Millas
Nubes Baja 6000 ft
Muy nublado 25000 ft
Punto de rocío 65 ° F
Humedad 88%
Precipitaciones 0.00 pul
Espesor de la nieve No disponible.
UV 0 de una escala de 12
Polen 4.70 de una escala de 12
Calidad del aire No disponible.
Flu Activity No disponible.
METAR KPBI 221053Z 00000KT 10SM FEW060 BKN250 19/17 A3001 RMK AO2 SLP162 T01890172

More Conditions Fewer Conditions

10-Day Weather Forecast

Almanac

Astronomía

Dec. 22, 2014 Salida Puesta
Hora real
Crepúsculo civil
Crepúsculo náutico
Crepúsculo astronómico
Luna
Horas de luz
Horas de luz
Tomorrow will be .
, % of the Moon is Illuminated

Extremos de hoy

Máximos del estado Bajos del estado

Community

WunderPhotos

Upload Photos

1,779,583 ¡fotos cargadas!

WunderBlogs® & News

Nearby

Calidad del aire

  Calidad del aire Índice AQ Contaminante
Not available.

Grosos de nieve

Estación Profundido Altura

Actividad de terremotos

Ciudad Distance Mag. Tiempo y dato
Magnitud mínima muestra es 2,5.

Temperaturas de aguas costeras

Lugar Temperatura

Estaciones meteorológicas cercanas